KCWA

Central Wisconsin Airport

Mosinee, Wisconsin, USA
KCWA 260520Z 2606/2706 VRB03KT P6SM SCT200 FM261400 25008KT P6SM BKN200 FM262100 30011KT P6SM BKN050 OVC150 PROB30 2621/2702 6SM -SHRA BKN025 FM270200 34006KT P6SM SCT015 BKN025 AMD LTD TO CLD VIS AND WIND TIL 261100
Issued Valid From Valid To
Apr-26 @ 05:20 UTC
(42 minutes ago)
Apr-26 @ 06:00 UTC
(2 minutes ago)
Apr-27 @ 06:00 UTC
(in 24 hours)
Apr-26 @ 06:00 to Apr-26 @ 14:00
KCWA 260520Z 2606/2706 VRB03KT P6SM SCT200
Wind Visibility Clouds
Variable at 3 knots Greater than 6 miles
  • Scattered at 20,000' AGL
From Apr-26 @ 14:00 to Apr-26 @ 21:00
FM261400 25008KT P6SM BKN200
Wind Visibility Clouds
250° at 8 knots Greater than 6 miles
  • Broken at 20,000' AGL
From Apr-26 @ 21:00 to Apr-27 @ 02:00
FM262100 30011KT P6SM BKN050 OVC150
Wind Visibility Clouds
300° at 11 knots Greater than 6 miles
  • Broken at 5,000' AGL
  • Overcast at 15,000' AGL
Probable  (Probability 30%) Apr-26 @ 21:00 to Apr-27 @ 02:00
PROB30 2621/2702 6SM -SHRA BKN025
Visibility Clouds Conditions
6 miles
  • Broken at 2,500' AGL
  • Light Rain
From Apr-27 @ 02:00 to Apr-27 @ 06:00
FM270200 34006KT P6SM SCT015 BKN025 AMD LTD TO CLD VIS AND WIND TIL 261100
Wind Visibility Clouds
340° at 6 knots Greater than 6 miles
  • Scattered at 1,500' AGL
  • Broken at 2,500' AGL
KCWA 260520Z 2606/2706 VRB03KT P6SM SCT200 FM261400 25008KT P6SM BKN200 FM262100 30011KT P6SM BKN050 OVC150 PROB30 2621/2702 6SM -SHRA BKN025 FM270200 34006KT P6SM SCT015 BKN025 AMD LTD TO CLD VIS AND WIND TIL 261100
Issued Apr-26 @ 05:20 UTC
(42 minutes ago)
Valid From Apr-26 @ 06:00 UTC
(2 minutes ago)
Valid To Apr-27 @ 06:00 UTC
(in 24 hours)
Apr-26 @ 06:00 - Apr-26 @ 14:00
Wind Visibility
Variable at 3 knots Greater than 6 miles
Clouds
  • Scattered at 20,000' AGL
From Apr-26 @ 14:00 - Apr-26 @ 21:00
Wind Visibility
250° at 8 knots Greater than 6 miles
Clouds
  • Broken at 20,000' AGL
From Apr-26 @ 21:00 - Apr-27 @ 02:00
Wind Visibility
300° at 11 knots Greater than 6 miles
Clouds
  • Broken at 5,000' AGL
  • Overcast at 15,000' AGL
Probability 30% Probable Apr-26 @ 21:00 - Apr-27 @ 02:00
Clouds
  • Broken at 2,500' AGL
Conditions
  • Light Rain
From Apr-27 @ 02:00 - Apr-27 @ 06:00
Wind Visibility
340° at 6 knots Greater than 6 miles
Clouds
  • Scattered at 1,500' AGL
  • Broken at 2,500' AGL